Terminal Aerodrome Forecast
Issued by NWS

Home | Current Version | Previous Version | Text Only | Print | Product List | Glossary On
Versions: 1 2 3 4 5 6 7 8 9 10 11 12 13 14
000
FTUS44 KOUN 291140
TAFGAG
TAF
KGAG 291140Z 2912/3012 35014G20KT 4SM -SHRA BR OVC003
     FM292000 34020G25KT 6SM -SHRA BR OVC006
      TEMPO 2920/2924 3SM SHRA BR OVC004
     FM300000 31015G22KT P6SM OVC015
      AMD NOT SKED=

USA.gov is the U.S. government's official web portal to all federal, state and local government web resources and services.